createdAt,value
2017-07-04T00:00:09.232Z,21.06
2017-07-04T00:00:35.375Z,21.07
2017-07-04T00:01:01.510Z,21.07
2017-07-04T00:01:27.653Z,21.14
2017-07-04T00:01:53.797Z,21.03
2017-07-04T00:02:19.942Z,21.06
2017-07-04T00:02:46.085Z,20.95
2017-07-04T00:03:12.232Z,21.05
2017-07-04T00:03:38.361Z,20.99
2017-07-04T00:04:04.498Z,20.96
2017-07-04T00:04:30.642Z,20.95
2017-07-04T00:04:56.803Z,20.97
2017-07-04T00:05:22.932Z,20.99
2017-07-04T00:05:49.074Z,20.97
2017-07-04T00:06:15.215Z,21.05
2017-07-04T00:06:41.365Z,20.92
2017-07-04T00:07:07.494Z,20.93
2017-07-04T00:07:33.628Z,21.07
2017-07-04T00:07:59.776Z,20.99
2017-07-04T00:08:25.913Z,21.02
2017-07-04T00:08:52.050Z,21.11
2017-07-04T00:09:18.197Z,21.03
2017-07-04T00:09:44.333Z,21.06
2017-07-04T00:10:10.465Z,20.95
2017-07-04T00:10:36.611Z,21.06
2017-07-04T00:11:02.777Z,21.11
2017-07-04T00:11:28.936Z,21.05
2017-07-04T00:11:55.079Z,21.02
2017-07-04T00:12:21.211Z,21.05
2017-07-04T00:12:47.356Z,21.05
2017-07-04T00:13:13.510Z,20.97
2017-07-04T00:13:39.855Z,20.92
2017-07-04T00:14:06.021Z,20.99
2017-07-04T00:14:32.177Z,20.96
2017-07-04T00:14:58.306Z,20.96
2017-07-04T00:15:24.451Z,20.99
2017-07-04T00:15:50.596Z,20.93
2017-07-04T00:16:16.729Z,20.99
2017-07-04T00:16:42.878Z,20.92
2017-07-04T00:17:08.997Z,20.9
2017-07-04T00:17:35.151Z,20.9
2017-07-04T00:18:01.291Z,20.9
2017-07-04T00:18:27.475Z,20.92
2017-07-04T00:18:53.615Z,20.85
2017-07-04T00:19:19.761Z,20.93
2017-07-04T00:19:45.886Z,20.87
2017-07-04T00:20:12.027Z,20.88
2017-07-04T00:20:38.173Z,20.93
2017-07-04T00:21:04.372Z,20.92
2017-07-04T00:21:30.496Z,20.87
2017-07-04T00:21:56.643Z,20.82
2017-07-04T00:22:22.778Z,20.81
2017-07-04T00:22:48.933Z,20.82
2017-07-04T00:23:15.064Z,20.92
2017-07-04T00:23:41.205Z,20.81
2017-07-04T00:24:07.354Z,20.87
2017-07-04T00:24:33.482Z,20.78
2017-07-04T00:24:59.622Z,20.81
2017-07-04T00:25:25.767Z,20.84
2017-07-04T00:25:51.936Z,20.85
2017-07-04T00:26:18.062Z,20.82
2017-07-04T00:26:44.217Z,20.77
2017-07-04T00:27:10.362Z,20.82
2017-07-04T00:27:36.481Z,20.82
2017-07-04T00:28:02.628Z,20.78
2017-07-04T00:28:28.766Z,20.93
2017-07-04T00:28:54.900Z,20.93
2017-07-04T00:29:21.043Z,20.9
2017-07-04T00:29:47.190Z,20.88
2017-07-04T00:30:13.317Z,20.88
2017-07-04T00:30:39.457Z,20.88
2017-07-04T00:31:05.607Z,20.9
2017-07-04T00:31:31.739Z,20.85
2017-07-04T00:31:57.881Z,20.72
2017-07-04T00:32:24.046Z,20.87
2017-07-04T00:32:50.181Z,20.82
2017-07-04T00:33:16.313Z,20.75
2017-07-04T00:33:42.478Z,20.84
2017-07-04T00:34:08.613Z,20.87
2017-07-04T00:34:34.808Z,20.85
2017-07-04T00:35:00.940Z,20.78
2017-07-04T00:35:27.085Z,20.67
2017-07-04T00:35:53.223Z,20.65
2017-07-04T00:36:19.354Z,20.66
2017-07-04T00:36:45.483Z,20.75
2017-07-04T00:37:13.375Z,20.75
2017-07-04T00:37:40.385Z,20.72
2017-07-04T00:38:07.469Z,20.74
2017-07-04T00:38:35.178Z,20.69
2017-07-04T00:39:02.774Z,20.72
2017-07-04T00:39:29.620Z,20.72
2017-07-04T00:39:55.752Z,20.72
2017-07-04T00:40:21.883Z,20.7
2017-07-04T00:40:48.060Z,20.75
2017-07-04T00:41:14.199Z,20.75
2017-07-04T00:41:40.331Z,20.69
2017-07-04T00:42:06.474Z,20.81
2017-07-04T00:42:32.636Z,20.7
2017-07-04T00:42:58.765Z,20.7
2017-07-04T00:43:24.911Z,20.77
2017-07-04T00:43:51.055Z,20.74
2017-07-04T00:44:17.188Z,20.78
2017-07-04T00:44:43.352Z,20.66
2017-07-04T00:45:09.488Z,20.69
2017-07-04T00:45:35.635Z,20.67
2017-07-04T00:46:01.775Z,20.66
2017-07-04T00:46:27.906Z,20.66
2017-07-04T00:46:54.053Z,20.69
2017-07-04T00:47:20.197Z,20.63
2017-07-04T00:47:46.326Z,20.67
2017-07-04T00:48:12.464Z,20.69
2017-07-04T00:48:38.610Z,20.67
2017-07-04T00:49:04.739Z,20.65
2017-07-04T00:49:30.879Z,20.72
2017-07-04T00:49:57.018Z,20.72
2017-07-04T00:50:23.151Z,20.75
2017-07-04T00:50:49.299Z,20.75
2017-07-04T00:51:15.428Z,20.78
2017-07-04T00:51:41.561Z,20.74
2017-07-04T00:52:07.709Z,20.78
2017-07-04T00:52:33.863Z,20.67
2017-07-04T00:53:00.006Z,20.67
2017-07-04T00:53:26.154Z,20.65
2017-07-04T00:53:52.289Z,20.62
2017-07-04T00:54:18.415Z,20.65
2017-07-04T00:54:44.567Z,20.67
2017-07-04T00:55:10.704Z,20.65
2017-07-04T00:55:36.832Z,20.67
2017-07-04T00:56:02.982Z,20.63
2017-07-04T00:56:29.119Z,20.63
2017-07-04T00:56:55.264Z,20.59
2017-07-04T00:57:21.400Z,20.56
2017-07-04T00:57:47.533Z,20.65
2017-07-04T00:58:13.678Z,20.67
2017-07-04T00:58:39.816Z,20.6
2017-07-04T00:59:05.946Z,20.58
2017-07-04T00:59:33.166Z,20.41
2017-07-04T01:00:00.572Z,20.44
2017-07-04T01:00:28.620Z,20.48
2017-07-04T01:00:55.941Z,20.62
2017-07-04T01:01:23.643Z,20.55
2017-07-04T01:01:50.401Z,20.58
2017-07-04T01:02:17.741Z,20.62
2017-07-04T01:02:44.619Z,20.59
2017-07-04T01:03:12.035Z,20.41
2017-07-04T01:03:40.053Z,20.39
2017-07-04T01:04:08.256Z,20.43
2017-07-04T01:04:34.329Z,20.47
2017-07-04T01:05:00.473Z,20.4
2017-07-04T01:05:26.604Z,20.44
2017-07-04T01:05:52.743Z,20.37
2017-07-04T01:06:18.890Z,20.41
2017-07-04T01:06:45.016Z,20.43
2017-07-04T01:07:11.153Z,20.36
2017-07-04T01:07:37.287Z,20.47
2017-07-04T01:08:03.432Z,20.44
2017-07-04T01:08:29.577Z,20.41
2017-07-04T01:08:55.708Z,20.32
2017-07-04T01:09:21.846Z,20.47
2017-07-04T01:09:47.992Z,20.4
2017-07-04T01:10:14.124Z,20.31
2017-07-04T01:10:40.264Z,20.44
2017-07-04T01:11:06.407Z,20.4
2017-07-04T01:11:32.540Z,20.41
2017-07-04T01:11:58.705Z,20.34
2017-07-04T01:12:24.819Z,20.37
2017-07-04T01:12:50.957Z,20.41
2017-07-04T01:13:17.089Z,20.41
2017-07-04T01:13:43.232Z,20.43
2017-07-04T01:14:09.376Z,20.43
2017-07-04T01:14:35.504Z,20.41
2017-07-04T01:15:01.649Z,20.37
2017-07-04T01:15:27.795Z,20.48
2017-07-04T01:15:53.925Z,20.39
2017-07-04T01:16:20.063Z,20.55
2017-07-04T01:16:46.209Z,20.48
2017-07-04T01:17:12.340Z,20.4
2017-07-04T01:17:38.480Z,20.39
2017-07-04T01:18:04.625Z,20.47
2017-07-04T01:18:30.755Z,20.43
2017-07-04T01:18:56.902Z,20.47
2017-07-04T01:19:23.029Z,20.5
2017-07-04T01:19:49.169Z,20.48
2017-07-04T01:20:15.315Z,20.48
2017-07-04T01:20:41.447Z,20.48
2017-07-04T01:21:07.583Z,20.44
2017-07-04T01:21:33.732Z,20.41
2017-07-04T01:21:59.863Z,20.41
2017-07-04T01:22:25.994Z,20.47
2017-07-04T01:22:52.141Z,20.44
2017-07-04T01:23:18.279Z,20.48
2017-07-04T01:23:44.410Z,20.39
2017-07-04T01:24:10.556Z,20.39
2017-07-04T01:24:36.689Z,20.44
2017-07-04T01:25:02.835Z,20.41
2017-07-04T01:25:28.972Z,20.44
2017-07-04T01:25:55.104Z,20.44
2017-07-04T01:26:21.253Z,20.39
2017-07-04T01:26:47.392Z,20.28
2017-07-04T01:27:13.523Z,20.44
2017-07-04T01:27:39.691Z,20.41
2017-07-04T01:28:05.831Z,20.36
2017-07-04T01:28:31.958Z,20.36
2017-07-04T01:28:58.101Z,20.4
2017-07-04T01:29:24.246Z,20.34
2017-07-04T01:29:50.383Z,20.36
2017-07-04T01:30:16.517Z,20.36
2017-07-04T01:30:42.646Z,20.29
2017-07-04T01:31:08.794Z,20.37
2017-07-04T01:31:34.936Z,20.44
2017-07-04T01:32:01.066Z,20.32
2017-07-04T01:32:27.202Z,20.32
2017-07-04T01:32:53.377Z,20.31
2017-07-04T01:33:19.501Z,20.34
2017-07-04T01:33:45.641Z,20.29
2017-07-04T01:34:11.784Z,20.37
2017-07-04T01:34:37.914Z,20.29
2017-07-04T01:35:04.050Z,20.32
2017-07-04T01:35:30.186Z,20.39
2017-07-04T01:35:56.329Z,20.28
2017-07-04T01:36:22.477Z,20.31
2017-07-04T01:36:48.602Z,20.32
2017-07-04T01:37:14.762Z,20.34
2017-07-04T01:37:40.907Z,20.32
2017-07-04T01:38:07.035Z,20.26
2017-07-04T01:38:33.171Z,20.28
2017-07-04T01:38:59.320Z,20.34
2017-07-04T01:39:25.455Z,20.32
2017-07-04T01:39:51.588Z,20.29
2017-07-04T01:40:17.733Z,20.31
2017-07-04T01:40:43.867Z,20.28
2017-07-04T01:41:10.011Z,20.26
2017-07-04T01:41:36.140Z,20.26
2017-07-04T01:42:02.275Z,20.24
2017-07-04T01:42:28.419Z,20.09
2017-07-04T01:42:54.556Z,20.19
2017-07-04T01:43:20.685Z,20.21
2017-07-04T01:43:46.835Z,20.21
2017-07-04T01:44:12.968Z,20.28
2017-07-04T01:44:39.097Z,20.29
2017-07-04T01:45:05.246Z,20.24
2017-07-04T01:45:31.385Z,20.18
2017-07-04T01:45:57.515Z,20.16
2017-07-04T01:46:23.657Z,20.19
2017-07-04T01:46:49.789Z,20.24
2017-07-04T01:47:15.936Z,20.25
2017-07-04T01:47:42.076Z,20.26
2017-07-04T01:48:08.204Z,20.24
2017-07-04T01:48:34.352Z,20.31
2017-07-04T01:49:00.490Z,20.26
2017-07-04T01:49:26.624Z,20.29
2017-07-04T01:49:52.768Z,20.29
2017-07-04T01:50:18.919Z,20.34
2017-07-04T01:50:45.044Z,20.26
2017-07-04T01:51:11.210Z,20.28
2017-07-04T01:51:37.358Z,20.29
2017-07-04T01:52:03.490Z,20.24
2017-07-04T01:52:29.632Z,20.26
2017-07-04T01:52:55.764Z,20.29
2017-07-04T01:53:21.909Z,20.26
2017-07-04T01:53:48.057Z,20.31
2017-07-04T01:54:14.186Z,20.31
2017-07-04T01:54:40.349Z,20.31
2017-07-04T01:55:06.497Z,20.32
2017-07-04T01:55:32.643Z,20.26
2017-07-04T01:55:58.783Z,20.37
2017-07-04T01:56:24.927Z,20.31
2017-07-04T01:56:51.062Z,20.28
2017-07-04T01:57:17.192Z,20.34
2017-07-04T01:57:43.338Z,20.32
2017-07-04T01:58:09.476Z,20.26
2017-07-04T01:58:35.608Z,20.22
2017-07-04T01:59:01.753Z,20.28
2017-07-04T01:59:27.892Z,20.29
2017-07-04T01:59:54.025Z,20.28
2017-07-04T02:00:20.168Z,20.28
2017-07-04T02:00:46.314Z,20.32
2017-07-04T02:01:12.443Z,20.28
2017-07-04T02:01:39.985Z,20.28
2017-07-04T02:02:06.116Z,20.32
2017-07-04T02:02:32.233Z,20.29
2017-07-04T02:02:58.377Z,20.31
2017-07-04T02:03:24.500Z,20.32
2017-07-04T02:03:50.631Z,20.28
2017-07-04T02:04:16.762Z,20.26
2017-07-04T02:04:42.874Z,20.29
2017-07-04T02:05:09.020Z,20.22
2017-07-04T02:05:35.151Z,20.25
2017-07-04T02:06:01.267Z,20.26
2017-07-04T02:06:27.391Z,20.22
2017-07-04T02:06:53.522Z,20.24
2017-07-04T02:07:19.642Z,20.24
2017-07-04T02:07:45.760Z,20.26
2017-07-04T02:08:11.895Z,20.25
2017-07-04T02:08:38.018Z,20.25
2017-07-04T02:09:04.153Z,20.22
2017-07-04T02:09:30.268Z,20.14
2017-07-04T02:09:56.392Z,20.18
2017-07-04T02:10:22.522Z,20.11
2017-07-04T02:10:48.641Z,20.14
2017-07-04T02:11:14.760Z,20.07
2017-07-04T02:11:40.896Z,20.11
2017-07-04T02:12:07.019Z,20.16
2017-07-04T02:12:33.136Z,19.96
2017-07-04T02:12:59.269Z,20.03
2017-07-04T02:13:25.394Z,20
2017-07-04T02:13:51.510Z,20
2017-07-04T02:14:17.638Z,19.94
2017-07-04T02:14:43.757Z,20.02
2017-07-04T02:15:09.891Z,20.03
2017-07-04T02:15:36.012Z,19.92
2017-07-04T02:16:02.128Z,20.09
2017-07-04T02:16:28.261Z,20
2017-07-04T02:16:54.385Z,20.02
2017-07-04T02:17:20.522Z,19.96
2017-07-04T02:17:46.651Z,19.94
2017-07-04T02:18:12.783Z,20.02
2017-07-04T02:18:38.898Z,19.95
2017-07-04T02:19:05.021Z,19.92
2017-07-04T02:19:31.156Z,20
2017-07-04T02:19:57.272Z,20.03
2017-07-04T02:20:23.402Z,20
2017-07-04T02:20:49.519Z,19.99
2017-07-04T02:21:15.650Z,20.03
2017-07-04T02:21:41.782Z,20.09
2017-07-04T02:22:07.916Z,20.03
2017-07-04T02:22:34.041Z,20.06
2017-07-04T02:23:00.170Z,20.1
2017-07-04T02:23:26.286Z,20.03
2017-07-04T02:23:52.409Z,20.1
2017-07-04T02:24:18.544Z,20.07
2017-07-04T02:24:44.665Z,20.1
2017-07-04T02:25:10.783Z,20.1
2017-07-04T02:25:36.912Z,20.11
2017-07-04T02:26:03.037Z,20.14
2017-07-04T02:26:29.169Z,20.1
2017-07-04T02:26:55.285Z,20.11
2017-07-04T02:27:21.410Z,20.1
2017-07-04T02:27:47.545Z,20.11
2017-07-04T02:28:13.662Z,20.09
2017-07-04T02:28:39.780Z,20.07
2017-07-04T02:29:05.915Z,20.04
2017-07-04T02:29:32.037Z,19.92
2017-07-04T02:29:58.154Z,20.04
2017-07-04T02:30:24.285Z,20.03
2017-07-04T02:30:50.409Z,20.04
2017-07-04T02:31:16.536Z,20.02
2017-07-04T02:31:42.656Z,20.09
2017-07-04T02:32:08.773Z,20.02
2017-07-04T02:32:34.906Z,20.02
2017-07-04T02:33:01.025Z,20.06
2017-07-04T02:33:27.142Z,19.96
2017-07-04T02:33:53.276Z,20.09
2017-07-04T02:34:19.402Z,19.92
2017-07-04T02:34:45.521Z,19.99
2017-07-04T02:35:11.649Z,19.99
2017-07-04T02:35:37.781Z,19.99
2017-07-04T02:36:03.894Z,19.95
2017-07-04T02:36:30.020Z,19.92
2017-07-04T02:36:56.142Z,19.99
2017-07-04T02:37:22.271Z,19.94
2017-07-04T02:37:48.395Z,19.88
2017-07-04T02:38:14.513Z,19.94
2017-07-04T02:38:40.642Z,19.92
2017-07-04T02:39:06.775Z,19.86
2017-07-04T02:39:32.887Z,19.91
2017-07-04T02:39:59.013Z,19.94
2017-07-04T02:40:25.145Z,19.96
2017-07-04T02:40:51.262Z,19.99
2017-07-04T02:41:17.384Z,20.02
2017-07-04T02:41:43.516Z,19.99
2017-07-04T02:42:09.635Z,19.94
2017-07-04T02:42:35.751Z,19.95
2017-07-04T02:43:01.885Z,19.96
2017-07-04T02:43:28.009Z,19.92
2017-07-04T02:43:54.126Z,19.92
2017-07-04T02:44:20.260Z,19.82
2017-07-04T02:44:46.380Z,19.84
2017-07-04T02:45:12.498Z,19.85
2017-07-04T02:45:38.627Z,19.76
2017-07-04T02:46:04.759Z,19.67
2017-07-04T02:46:30.874Z,19.73
2017-07-04T02:46:56.998Z,19.74
2017-07-04T02:47:23.131Z,19.85
2017-07-04T02:47:49.248Z,19.82
2017-07-04T02:48:15.378Z,19.91
2017-07-04T02:48:41.496Z,19.94
2017-07-04T02:49:07.625Z,19.92
2017-07-04T02:49:33.763Z,19.96
2017-07-04T02:49:59.877Z,20
2017-07-04T02:50:26.001Z,19.95
2017-07-04T02:50:52.134Z,19.94
2017-07-04T02:51:18.251Z,19.99
2017-07-04T02:51:44.373Z,19.99
2017-07-04T02:52:10.504Z,19.99
2017-07-04T02:52:36.621Z,20
2017-07-04T02:53:02.737Z,19.92
2017-07-04T02:53:28.867Z,19.95
2017-07-04T02:53:55.013Z,20.02
2017-07-04T02:54:21.144Z,19.92
2017-07-04T02:54:47.261Z,20.04
2017-07-04T02:55:13.405Z,20.06
2017-07-04T02:55:39.536Z,19.96
2017-07-04T02:56:05.653Z,20
2017-07-04T02:56:31.769Z,19.95
2017-07-04T02:56:57.904Z,19.94
2017-07-04T02:57:24.026Z,19.96
2017-07-04T02:57:50.143Z,19.89
2017-07-04T02:58:16.274Z,20
2017-07-04T02:58:42.399Z,20
2017-07-04T02:59:08.524Z,19.99
2017-07-04T02:59:34.645Z,19.99
2017-07-04T03:00:00.762Z,20.02
2017-07-04T03:00:26.900Z,19.92
2017-07-04T03:00:53.022Z,19.91
2017-07-04T03:01:19.141Z,19.86
2017-07-04T03:01:45.274Z,19.95
2017-07-04T03:02:11.398Z,19.92
2017-07-04T03:02:37.514Z,19.91
2017-07-04T03:03:03.645Z,19.92
2017-07-04T03:03:29.780Z,19.89
2017-07-04T03:03:55.893Z,19.94
2017-07-04T03:04:22.019Z,19.88
2017-07-04T03:04:48.138Z,19.91
2017-07-04T03:05:14.271Z,19.88
2017-07-04T03:05:40.395Z,19.95
2017-07-04T03:06:06.510Z,19.91
2017-07-04T03:06:32.644Z,19.92
2017-07-04T03:06:58.770Z,19.89
2017-07-04T03:07:24.885Z,19.86
2017-07-04T03:07:51.012Z,19.81
2017-07-04T03:08:17.147Z,19.85
2017-07-04T03:08:43.263Z,19.81
2017-07-04T03:09:09.385Z,19.85
2017-07-04T03:09:35.540Z,19.85
2017-07-04T03:10:01.662Z,19.82
2017-07-04T03:10:27.793Z,19.67
2017-07-04T03:10:53.906Z,19.81
2017-07-04T03:11:20.031Z,19.7
2017-07-04T03:11:46.161Z,19.82
2017-07-04T03:12:12.278Z,19.84
2017-07-04T03:12:38.400Z,19.76
2017-07-04T03:13:04.533Z,19.79
2017-07-04T03:13:30.653Z,19.77
2017-07-04T03:13:56.769Z,19.79
2017-07-04T03:14:22.908Z,19.67
2017-07-04T03:14:49.032Z,19.77
2017-07-04T03:15:15.151Z,19.85
2017-07-04T03:15:41.280Z,19.85
2017-07-04T03:16:07.400Z,19.79
2017-07-04T03:16:33.530Z,19.84
2017-07-04T03:16:59.649Z,19.82
2017-07-04T03:17:25.767Z,19.76
2017-07-04T03:17:51.900Z,19.66
2017-07-04T03:18:18.024Z,19.79
2017-07-04T03:18:44.157Z,19.79
2017-07-04T03:19:10.288Z,19.79
2017-07-04T03:19:36.414Z,19.81
2017-07-04T03:20:02.531Z,19.71
2017-07-04T03:20:28.660Z,19.7
2017-07-04T03:20:54.790Z,19.7
2017-07-04T03:21:20.909Z,19.82
2017-07-04T03:21:47.031Z,19.7
2017-07-04T03:22:13.148Z,19.7
2017-07-04T03:22:39.281Z,19.7
2017-07-04T03:23:05.406Z,19.79
2017-07-04T03:23:31.522Z,19.73
2017-07-04T03:23:57.649Z,19.69
2017-07-04T03:24:23.785Z,19.74
2017-07-04T03:24:49.893Z,19.7
2017-07-04T03:25:16.018Z,19.7
2017-07-04T03:25:42.150Z,19.71
2017-07-04T03:26:08.267Z,19.7
2017-07-04T03:26:34.391Z,19.7
2017-07-04T03:27:00.522Z,19.74
2017-07-04T03:27:26.643Z,19.7
2017-07-04T03:27:52.759Z,19.69
2017-07-04T03:28:18.895Z,19.73
2017-07-04T03:28:45.018Z,19.67
2017-07-04T03:29:11.133Z,19.69
2017-07-04T03:29:37.268Z,19.64
2017-07-04T03:30:03.396Z,19.69
2017-07-04T03:30:29.514Z,19.7
2017-07-04T03:30:55.641Z,19.77
2017-07-04T03:31:21.776Z,19.79
2017-07-04T03:31:47.889Z,19.79
2017-07-04T03:32:14.017Z,19.74
2017-07-04T03:32:40.140Z,19.79
2017-07-04T03:33:06.270Z,19.77
2017-07-04T03:33:32.397Z,19.81
2017-07-04T03:33:58.513Z,19.76
2017-07-04T03:34:24.685Z,19.7
2017-07-04T03:34:50.815Z,19.64
2017-07-04T03:35:16.930Z,19.7
2017-07-04T03:35:43.055Z,19.64
2017-07-04T03:36:09.185Z,19.76
2017-07-04T03:36:35.303Z,19.73
2017-07-04T03:37:01.426Z,19.7
2017-07-04T03:37:27.558Z,19.67
2017-07-04T03:37:53.679Z,19.71
2017-07-04T03:38:19.812Z,19.67
2017-07-04T03:38:45.926Z,19.69
2017-07-04T03:39:12.053Z,19.74
2017-07-04T03:39:38.185Z,19.7
2017-07-04T03:40:04.302Z,19.69
2017-07-04T03:40:30.427Z,19.71
2017-07-04T03:40:56.560Z,19.67
2017-07-04T03:41:22.679Z,19.69
2017-07-04T03:41:48.796Z,19.76
2017-07-04T03:42:14.931Z,19.73
2017-07-04T03:42:41.054Z,19.79
2017-07-04T03:43:07.169Z,19.66
2017-07-04T03:43:33.300Z,19.7
2017-07-04T03:43:59.419Z,19.73
2017-07-04T03:44:25.553Z,19.71
2017-07-04T03:44:51.693Z,19.69
2017-07-04T03:45:17.810Z,19.71
2017-07-04T03:45:43.946Z,19.73
2017-07-04T03:46:10.069Z,19.63
2017-07-04T03:46:36.187Z,19.62
2017-07-04T03:47:02.316Z,19.63
2017-07-04T03:47:28.439Z,19.67
2017-07-04T03:47:54.579Z,19.59
2017-07-04T03:48:20.707Z,19.59
2017-07-04T03:48:46.839Z,19.56
2017-07-04T03:49:12.959Z,19.62
2017-07-04T03:49:39.082Z,19.59
2017-07-04T03:50:05.200Z,19.59
2017-07-04T03:50:31.329Z,19.58
2017-07-04T03:50:57.453Z,19.56
2017-07-04T03:51:23.570Z,19.54
2017-07-04T03:51:49.707Z,19.59
2017-07-04T03:52:15.892Z,19.56
2017-07-04T03:52:42.028Z,19.64
2017-07-04T03:53:08.153Z,19.54
2017-07-04T03:53:34.285Z,19.59
2017-07-04T03:54:00.400Z,19.62
2017-07-04T03:54:26.524Z,19.58
2017-07-04T03:54:52.648Z,19.64
2017-07-04T03:55:18.776Z,19.66
2017-07-04T03:55:44.908Z,19.67
2017-07-04T03:56:11.022Z,19.7
2017-07-04T03:56:37.147Z,19.67
2017-07-04T03:57:03.282Z,19.69
2017-07-04T03:57:29.400Z,19.69
2017-07-04T03:57:55.521Z,19.64
2017-07-04T03:58:21.652Z,19.64
2017-07-04T03:58:47.773Z,19.7
2017-07-04T03:59:13.887Z,19.7
2017-07-04T03:59:40.022Z,19.7
2017-07-04T04:00:06.146Z,19.7
2017-07-04T04:00:32.272Z,19.66
2017-07-04T04:00:58.389Z,19.73
2017-07-04T04:01:24.513Z,19.67
2017-07-04T04:01:50.647Z,19.7
2017-07-04T04:02:16.768Z,19.69
2017-07-04T04:02:42.883Z,19.71
2017-07-04T04:03:09.019Z,19.69
2017-07-04T04:03:35.141Z,19.77
2017-07-04T04:04:01.259Z,19.77
2017-07-04T04:04:27.391Z,19.7
2017-07-04T04:04:53.518Z,19.81
2017-07-04T04:05:19.634Z,19.71
2017-07-04T04:05:45.762Z,19.84
2017-07-04T04:06:11.878Z,19.81
2017-07-04T04:06:38.014Z,19.85
2017-07-04T04:07:04.139Z,19.82
2017-07-04T04:07:30.255Z,19.79
2017-07-04T04:07:56.386Z,19.85
2017-07-04T04:08:22.565Z,19.85
2017-07-04T04:08:48.643Z,19.85
2017-07-04T04:09:14.774Z,19.77
2017-07-04T04:09:40.906Z,19.79
2017-07-04T04:10:07.021Z,19.92
2017-07-04T04:10:33.149Z,19.92
2017-07-04T04:10:59.282Z,19.94
2017-07-04T04:11:25.398Z,20.03
2017-07-04T04:11:51.522Z,19.95
2017-07-04T04:12:17.655Z,20
2017-07-04T04:12:43.781Z,19.95
2017-07-04T04:13:09.891Z,20.04
2017-07-04T04:13:36.225Z,20.07
2017-07-04T04:14:02.347Z,20.09
2017-07-04T04:14:28.483Z,20.13
2017-07-04T04:14:54.616Z,20.09
2017-07-04T04:15:20.742Z,20.1
2017-07-04T04:15:46.859Z,20.13
2017-07-04T04:16:12.987Z,20.13
2017-07-04T04:16:39.117Z,20.14
2017-07-04T04:17:05.237Z,20.09
2017-07-04T04:17:31.360Z,20.16
2017-07-04T04:17:57.476Z,20.25
2017-07-04T04:18:23.610Z,20.25
2017-07-04T04:18:49.737Z,20.24
2017-07-04T04:19:15.856Z,20.28
2017-07-04T04:19:41.983Z,20.22
2017-07-04T04:20:08.115Z,20.28
2017-07-04T04:20:34.230Z,20.28
2017-07-04T04:21:00.355Z,20.31
2017-07-04T04:21:26.484Z,20.28
2017-07-04T04:21:52.601Z,20.32
2017-07-04T04:22:18.725Z,20.31
2017-07-04T04:22:44.848Z,20.28
2017-07-04T04:23:10.978Z,20.26
2017-07-04T04:23:37.112Z,20.29
2017-07-04T04:24:03.223Z,20.34
2017-07-04T04:24:29.350Z,20.44
2017-07-04T04:24:55.483Z,20.34
2017-07-04T04:25:21.600Z,20.39
2017-07-04T04:25:47.725Z,20.39
2017-07-04T04:26:13.859Z,20.36
2017-07-04T04:26:39.977Z,20.51
2017-07-04T04:27:06.094Z,20.47
2017-07-04T04:27:32.228Z,20.5
2017-07-04T04:27:58.350Z,20.43
2017-07-04T04:28:24.479Z,20.59
2017-07-04T04:28:50.596Z,20.59
2017-07-04T04:29:16.719Z,20.65
2017-07-04T04:29:42.853Z,20.6
2017-07-04T04:30:08.974Z,20.56
2017-07-04T04:30:35.088Z,20.59
2017-07-04T04:31:01.221Z,20.62
2017-07-04T04:31:27.342Z,20.62
2017-07-04T04:31:53.459Z,20.58
2017-07-04T04:32:19.594Z,20.59
2017-07-04T04:32:45.720Z,20.66
2017-07-04T04:33:11.839Z,20.6
2017-07-04T04:33:37.966Z,20.59
2017-07-04T04:34:04.098Z,20.59
2017-07-04T04:34:30.212Z,20.63
2017-07-04T04:34:56.338Z,20.63
2017-07-04T04:35:22.469Z,20.6
2017-07-04T04:35:48.587Z,20.65
2017-07-04T04:36:14.709Z,20.72
2017-07-04T04:36:40.842Z,20.69
2017-07-04T04:37:06.961Z,20.7
2017-07-04T04:37:33.080Z,20.69
2017-07-04T04:37:59.216Z,20.77
2017-07-04T04:38:25.339Z,20.74
2017-07-04T04:38:51.454Z,20.78
2017-07-04T04:39:17.586Z,20.74
2017-07-04T04:39:43.708Z,20.7
2017-07-04T04:40:09.844Z,20.67
2017-07-04T04:40:35.965Z,20.67
2017-07-04T04:41:02.080Z,20.66
2017-07-04T04:41:28.217Z,20.65
2017-07-04T04:41:54.342Z,20.65
2017-07-04T04:42:20.460Z,20.67
2017-07-04T04:42:46.596Z,20.78
2017-07-04T04:43:12.723Z,20.69
2017-07-04T04:43:38.841Z,20.77
2017-07-04T04:44:04.970Z,20.66
2017-07-04T04:44:31.103Z,20.82
2017-07-04T04:44:57.224Z,20.72
2017-07-04T04:45:23.347Z,20.69
2017-07-04T04:45:49.464Z,20.65
2017-07-04T04:46:15.594Z,20.65
2017-07-04T04:46:41.718Z,20.67
2017-07-04T04:47:07.836Z,20.7
2017-07-04T04:47:33.966Z,20.78
2017-07-04T04:48:00.099Z,20.84
2017-07-04T04:48:26.213Z,20.95
2017-07-04T04:48:52.339Z,21
2017-07-04T04:49:18.472Z,20.96
2017-07-04T04:49:44.589Z,21.06
2017-07-04T04:50:10.712Z,21.12
2017-07-04T04:50:36.835Z,21.12
2017-07-04T04:51:02.962Z,21.09
2017-07-04T04:51:29.095Z,21.12
2017-07-04T04:51:55.209Z,21.11
2017-07-04T04:52:21.335Z,21.14
2017-07-04T04:52:47.470Z,21.15
2017-07-04T04:53:13.588Z,21.12
2017-07-04T04:53:39.730Z,21.11
2017-07-04T04:54:05.866Z,21.14
2017-07-04T04:54:31.985Z,21.11
2017-07-04T04:54:58.102Z,21.17
2017-07-04T04:55:24.238Z,21.09
2017-07-04T04:55:50.381Z,21.11
2017-07-04T04:56:16.497Z,21.14
2017-07-04T04:56:42.630Z,21.06
2017-07-04T04:57:08.756Z,21.11
2017-07-04T04:57:34.873Z,21.14
2017-07-04T04:58:01.004Z,21.22
2017-07-04T04:58:27.189Z,21.24
2017-07-04T04:58:53.250Z,21.21
2017-07-04T04:59:19.376Z,21.27
2017-07-04T04:59:45.508Z,21.27
2017-07-04T05:00:11.622Z,21.36
2017-07-04T05:00:37.745Z,21.35
2017-07-04T05:01:03.878Z,21.37
2017-07-04T05:01:29.998Z,21.3
2017-07-04T05:01:56.132Z,21.37
2017-07-04T05:02:22.247Z,21.42
2017-07-04T05:02:48.376Z,21.39
2017-07-04T05:03:14.509Z,21.36
2017-07-04T05:03:40.625Z,21.42
2017-07-04T05:04:06.748Z,21.42
2017-07-04T05:04:32.881Z,21.37
2017-07-04T05:04:59.002Z,21.25
2017-07-04T05:05:25.121Z,21.27
2017-07-04T05:05:51.262Z,21.29
2017-07-04T05:06:17.402Z,21.18
2017-07-04T05:06:43.518Z,21.2
2017-07-04T05:07:09.649Z,21.11
2017-07-04T05:07:35.769Z,21.14
2017-07-04T05:08:01.902Z,21.14
2017-07-04T05:08:28.023Z,21.12
2017-07-04T05:08:54.143Z,21.05
2017-07-04T05:09:20.279Z,21.11
2017-07-04T05:09:46.404Z,21.07
2017-07-04T05:10:12.521Z,20.95
2017-07-04T05:10:38.654Z,20.92
2017-07-04T05:11:04.782Z,20.85
2017-07-04T05:11:30.900Z,20.9
2017-07-04T05:11:57.029Z,20.84
2017-07-04T05:12:23.163Z,20.93
2017-07-04T05:12:49.282Z,20.95
2017-07-04T05:13:15.405Z,20.9
2017-07-04T05:13:41.523Z,20.87
2017-07-04T05:14:07.657Z,20.82
2017-07-04T05:14:33.786Z,20.75
2017-07-04T05:14:59.905Z,20.72
2017-07-04T05:15:26.040Z,20.72
2017-07-04T05:15:52.167Z,20.74
2017-07-04T05:16:18.282Z,20.72
2017-07-04T05:16:44.409Z,20.65
2017-07-04T05:17:10.546Z,20.6
2017-07-04T05:17:36.663Z,20.59
2017-07-04T05:18:02.786Z,20.58
2017-07-04T05:18:28.908Z,20.62
2017-07-04T05:18:55.037Z,20.6
2017-07-04T05:19:21.190Z,20.65
2017-07-04T05:19:47.303Z,20.63
2017-07-04T05:20:13.431Z,20.55
2017-07-04T05:20:39.564Z,20.65
2017-07-04T05:21:05.682Z,20.59
2017-07-04T05:21:31.803Z,20.65
2017-07-04T05:21:57.935Z,20.56
2017-07-04T05:22:24.074Z,20.58
2017-07-04T05:22:50.191Z,20.63
2017-07-04T05:23:16.327Z,20.63
2017-07-04T05:23:42.450Z,20.63
2017-07-04T05:24:08.579Z,20.62
2017-07-04T05:24:34.695Z,20.55
2017-07-04T05:25:00.817Z,20.58
2017-07-04T05:25:26.991Z,20.59
2017-07-04T05:25:53.067Z,20.59
2017-07-04T05:26:19.204Z,20.56
2017-07-04T05:26:45.360Z,20.62
2017-07-04T05:27:11.483Z,20.56
2017-07-04T05:27:37.599Z,20.66
2017-07-04T05:28:03.730Z,20.56
2017-07-04T05:28:29.855Z,20.59
2017-07-04T05:28:55.972Z,20.66
2017-07-04T05:29:22.100Z,20.63
2017-07-04T05:29:48.218Z,20.6
2017-07-04T05:30:14.355Z,20.66
2017-07-04T05:30:40.479Z,20.72
2017-07-04T05:31:06.597Z,20.74
2017-07-04T05:31:32.752Z,20.69
2017-07-04T05:31:58.879Z,20.67
2017-07-04T05:32:24.997Z,20.66
2017-07-04T05:32:51.129Z,20.66
2017-07-04T05:33:17.262Z,20.69
2017-07-04T05:33:43.375Z,20.78
2017-07-04T05:34:09.502Z,20.74
2017-07-04T05:34:35.635Z,20.77
2017-07-04T05:35:01.753Z,20.8
2017-07-04T05:35:27.885Z,20.87
2017-07-04T05:35:54.003Z,20.84
2017-07-04T05:36:20.132Z,20.81
2017-07-04T05:36:46.264Z,20.85
2017-07-04T05:37:12.377Z,20.87
2017-07-04T05:37:38.505Z,20.9
2017-07-04T05:38:04.637Z,20.9